createdAt,value
2018-08-27T00:01:48.762Z,3.07
2018-08-27T00:04:16.956Z,3.53
2018-08-27T00:06:45.398Z,3.57
2018-08-27T00:09:14.100Z,4.87
2018-08-27T00:11:42.626Z,3.77
2018-08-27T00:14:10.859Z,3.27
2018-08-27T00:16:39.224Z,2.90
2018-08-27T00:19:07.726Z,3.00
2018-08-27T00:21:36.037Z,2.87
2018-08-27T00:24:04.236Z,3.00
2018-08-27T00:26:32.513Z,2.80
2018-08-27T00:29:00.872Z,3.43
2018-08-27T00:31:29.194Z,2.83
2018-08-27T00:33:57.530Z,2.70
2018-08-27T00:36:25.768Z,2.90
2018-08-27T00:38:54.061Z,3.00
2018-08-27T00:41:22.263Z,2.70
2018-08-27T00:43:50.581Z,2.70
2018-08-27T00:46:18.913Z,2.60
2018-08-27T00:48:47.266Z,2.57
2018-08-27T00:51:15.652Z,3.00
2018-08-27T00:53:43.972Z,3.00
2018-08-27T00:56:12.280Z,10.20
2018-08-27T00:58:40.573Z,7.03
2018-08-27T01:01:08.903Z,2.90
2018-08-27T01:03:37.126Z,2.50
2018-08-27T01:06:05.353Z,2.90
2018-08-27T01:08:34.387Z,2.87
2018-08-27T01:11:02.632Z,3.03
2018-08-27T01:13:30.931Z,2.77
2018-08-27T01:15:59.154Z,2.60
2018-08-27T01:18:27.494Z,2.80
2018-08-27T01:20:55.846Z,2.60
2018-08-27T01:23:24.048Z,2.47
2018-08-27T01:25:52.310Z,2.40
2018-08-27T01:28:20.613Z,2.10
2018-08-27T01:30:48.917Z,2.73
2018-08-27T01:33:17.194Z,2.20
2018-08-27T01:35:45.364Z,2.60
2018-08-27T01:38:13.709Z,2.80
2018-08-27T01:40:41.932Z,3.07
2018-08-27T01:43:10.124Z,2.90
2018-08-27T01:45:38.405Z,2.70
2018-08-27T01:48:13.482Z,2.60
2018-08-27T01:50:42.007Z,2.73
2018-08-27T01:53:10.264Z,2.60
2018-08-27T01:55:38.587Z,2.80
2018-08-27T01:58:06.966Z,3.63
2018-08-27T02:00:35.203Z,2.87
2018-08-27T02:03:03.458Z,3.13
2018-08-27T02:05:31.893Z,3.03
2018-08-27T02:08:00.231Z,2.77
2018-08-27T02:10:28.582Z,2.77
2018-08-27T02:12:57.015Z,2.80
2018-08-27T02:15:25.239Z,2.50
2018-08-27T02:17:53.647Z,2.57
2018-08-27T02:20:21.883Z,2.57
2018-08-27T02:22:50.388Z,2.23
2018-08-27T02:25:18.858Z,2.13
2018-08-27T02:27:47.536Z,2.50
2018-08-27T02:30:15.769Z,2.67
2018-08-27T02:32:44.245Z,2.47
2018-08-27T02:35:12.811Z,2.83
2018-08-27T02:37:41.178Z,3.00
2018-08-27T02:40:09.494Z,2.60
2018-08-27T02:42:37.780Z,2.03
2018-08-27T02:45:07.335Z,2.20
2018-08-27T02:47:35.612Z,2.00
2018-08-27T02:50:04.185Z,2.47
2018-08-27T02:52:32.509Z,2.30
2018-08-27T02:55:00.752Z,2.63
2018-08-27T02:57:29.062Z,2.43
2018-08-27T02:59:57.355Z,2.47
2018-08-27T03:02:25.668Z,2.57
2018-08-27T03:04:53.890Z,2.70
2018-08-27T03:07:22.228Z,2.30
2018-08-27T03:09:50.548Z,2.40
2018-08-27T03:12:18.941Z,2.10
2018-08-27T03:14:47.163Z,2.40
2018-08-27T03:17:15.514Z,2.50
2018-08-27T03:19:44.250Z,2.30
2018-08-27T03:22:12.487Z,2.03
2018-08-27T03:24:40.757Z,1.90
2018-08-27T03:27:09.306Z,1.90
2018-08-27T03:29:37.743Z,1.80
2018-08-27T03:32:06.033Z,1.77
2018-08-27T03:34:34.356Z,2.00
2018-08-27T03:37:02.652Z,1.90
2018-08-27T03:39:31.266Z,1.90
2018-08-27T03:41:59.442Z,2.10
2018-08-27T03:44:27.711Z,2.00
2018-08-27T03:46:55.934Z,1.93
2018-08-27T03:49:24.190Z,1.87
2018-08-27T03:51:52.676Z,1.93
2018-08-27T03:54:21.004Z,1.97
2018-08-27T03:56:49.856Z,1.80
2018-08-27T03:59:18.218Z,2.00
2018-08-27T04:01:46.523Z,1.90
2018-08-27T04:04:15.017Z,1.73
2018-08-27T04:06:43.324Z,1.97
2018-08-27T04:09:11.921Z,1.90
2018-08-27T04:11:40.231Z,2.10
2018-08-27T04:14:09.131Z,1.90
2018-08-27T04:16:37.551Z,2.10
2018-08-27T04:19:05.968Z,2.43
2018-08-27T04:21:35.398Z,2.30
2018-08-27T04:24:03.687Z,1.97
2018-08-27T04:26:31.932Z,2.00
2018-08-27T04:29:00.431Z,2.33
2018-08-27T04:31:28.741Z,2.17
2018-08-27T04:33:57.283Z,2.47
2018-08-27T04:36:25.676Z,2.13
2018-08-27T04:38:53.939Z,1.80
2018-08-27T04:41:22.313Z,2.20
2018-08-27T04:43:51.002Z,2.47
2018-08-27T04:46:19.268Z,1.97
2018-08-27T04:48:47.559Z,2.07
2018-08-27T04:51:15.797Z,2.10
2018-08-27T04:53:44.249Z,2.50
2018-08-27T04:56:12.784Z,2.67
2018-08-27T04:58:43.624Z,2.33
2018-08-27T05:01:12.071Z,2.67
2018-08-27T05:03:40.341Z,2.87
2018-08-27T05:06:08.566Z,2.50
2018-08-27T05:08:36.873Z,2.80
2018-08-27T05:11:05.557Z,2.33
2018-08-27T05:13:34.115Z,2.63
2018-08-27T05:16:02.647Z,2.53
2018-08-27T05:18:30.978Z,2.57
2018-08-27T05:20:59.384Z,2.47
2018-08-27T05:23:27.775Z,2.43
2018-08-27T05:25:56.354Z,2.30
2018-08-27T05:28:24.684Z,2.20
2018-08-27T05:30:53.017Z,1.97
2018-08-27T05:33:21.930Z,2.70
2018-08-27T05:35:50.333Z,2.10
2018-08-27T05:38:19.276Z,2.80
2018-08-27T05:40:47.733Z,2.60
2018-08-27T05:43:17.745Z,2.50
2018-08-27T05:45:46.959Z,2.30
2018-08-27T05:48:15.519Z,2.53
2018-08-27T05:50:44.439Z,2.00
2018-08-27T05:53:13.006Z,2.60
2018-08-27T05:55:41.438Z,2.30
2018-08-27T05:58:10.007Z,2.50
2018-08-27T06:00:39.253Z,2.17
2018-08-27T06:03:08.007Z,3.20
2018-08-27T06:05:37.807Z,3.53
2018-08-27T06:08:06.966Z,2.70
2018-08-27T06:10:37.767Z,2.17
2018-08-27T06:13:07.151Z,2.60
2018-08-27T06:15:37.834Z,2.43
2018-08-27T06:18:07.334Z,3.07
2018-08-27T06:20:35.961Z,2.67
2018-08-27T06:23:04.362Z,2.63
2018-08-27T06:25:33.080Z,2.87
2018-08-27T06:28:01.463Z,2.57
2018-08-27T06:30:30.758Z,2.57
2018-08-27T06:32:59.199Z,2.63
2018-08-27T06:35:27.491Z,2.03
2018-08-27T06:37:56.252Z,2.67
2018-08-27T06:40:25.583Z,3.17
2018-08-27T06:42:54.265Z,2.00
2018-08-27T06:45:29.746Z,2.43
2018-08-27T06:47:58.152Z,2.10
2018-08-27T06:50:27.817Z,2.10
2018-08-27T06:52:56.813Z,3.30
2018-08-27T06:55:25.367Z,3.27
2018-08-27T06:57:54.528Z,5.13
2018-08-27T07:00:23.148Z,6.17
2018-08-27T07:02:51.972Z,4.00
2018-08-27T07:05:20.377Z,3.30
2018-08-27T07:07:48.940Z,3.43
2018-08-27T07:10:17.828Z,2.83
2018-08-27T07:12:46.485Z,2.63
2018-08-27T07:15:15.928Z,3.00
2018-08-27T07:17:44.466Z,2.10
2018-08-27T07:20:12.860Z,2.37
2018-08-27T07:22:41.525Z,2.03
2018-08-27T07:25:09.925Z,2.33
2018-08-27T07:27:38.235Z,2.27
2018-08-27T07:30:06.878Z,2.00
2018-08-27T07:32:35.330Z,2.53
2018-08-27T07:35:03.914Z,2.30
2018-08-27T07:37:32.531Z,2.80
2018-08-27T07:40:07.932Z,2.00
2018-08-27T07:42:36.360Z,2.47
2018-08-27T07:45:06.949Z,2.60
2018-08-27T07:47:35.657Z,2.60
2018-08-27T07:50:04.380Z,3.20
2018-08-27T07:52:32.969Z,5.27
2018-08-27T07:55:01.725Z,3.97
2018-08-27T07:57:30.320Z,4.33
2018-08-27T07:59:58.773Z,3.60
2018-08-27T08:02:27.261Z,2.90
2018-08-27T08:04:55.602Z,2.50
2018-08-27T08:07:24.165Z,3.17
2018-08-27T08:09:52.472Z,3.23
2018-08-27T08:12:20.973Z,3.37
2018-08-27T08:14:49.276Z,3.37
2018-08-27T08:17:17.627Z,3.23
2018-08-27T08:19:46.115Z,3.00
2018-08-27T08:22:14.618Z,2.50
2018-08-27T08:24:43.586Z,2.87
2018-08-27T08:27:12.130Z,6.53
2018-08-27T08:29:41.023Z,15.83
2018-08-27T08:32:09.563Z,6.90
2018-08-27T08:34:37.842Z,2.90
2018-08-27T08:37:06.255Z,2.40
2018-08-27T08:39:35.243Z,2.13
2018-08-27T08:42:03.792Z,2.10
2018-08-27T08:44:32.264Z,2.40
2018-08-27T08:47:00.679Z,2.50
2018-08-27T08:49:29.274Z,2.70
2018-08-27T08:51:57.863Z,5.10
2018-08-27T08:54:30.380Z,4.90
2018-08-27T08:56:58.757Z,7.20
2018-08-27T08:59:27.459Z,3.73
2018-08-27T09:01:56.457Z,3.70
2018-08-27T09:04:25.087Z,3.33
2018-08-27T09:06:53.434Z,2.50
2018-08-27T09:09:21.840Z,2.40
2018-08-27T09:11:50.263Z,2.23
2018-08-27T09:14:18.747Z,2.50
2018-08-27T09:16:47.124Z,2.60
2018-08-27T09:19:15.409Z,2.17
2018-08-27T09:21:44.049Z,2.40
2018-08-27T09:24:12.327Z,2.40
2018-08-27T09:26:40.657Z,2.30
2018-08-27T09:29:09.009Z,2.83
2018-08-27T09:31:37.467Z,3.03
2018-08-27T09:34:06.726Z,3.37
2018-08-27T09:36:35.079Z,2.70
2018-08-27T09:39:03.540Z,3.00
2018-08-27T09:41:31.974Z,3.43
2018-08-27T09:44:00.502Z,3.20
2018-08-27T09:46:29.004Z,2.83
2018-08-27T09:48:57.438Z,2.60
2018-08-27T09:51:25.811Z,2.67
2018-08-27T09:53:54.030Z,3.37
2018-08-27T09:56:22.442Z,3.10
2018-08-27T09:58:51.028Z,4.80
2018-08-27T10:01:24.890Z,4.80
2018-08-27T10:04:00.250Z,2.57
2018-08-27T10:06:29.067Z,2.13
2018-08-27T10:08:57.689Z,1.93
2018-08-27T10:11:25.940Z,1.93
2018-08-27T10:13:54.259Z,2.30
2018-08-27T10:16:22.931Z,1.87
2018-08-27T10:18:51.419Z,2.20
2018-08-27T10:24:04.767Z,1.70
2018-08-27T10:26:33.291Z,2.50
2018-08-27T10:29:01.637Z,2.43
2018-08-27T10:31:30.053Z,2.40
2018-08-27T10:33:58.523Z,2.33
2018-08-27T10:36:26.946Z,6.40
2018-08-27T10:38:55.377Z,2.20
2018-08-27T10:41:23.844Z,2.27
2018-08-27T10:43:52.236Z,2.10
2018-08-27T10:46:20.778Z,1.87
2018-08-27T10:48:49.073Z,2.47
2018-08-27T10:51:17.362Z,2.20
2018-08-27T10:53:45.711Z,2.20
2018-08-27T10:56:14.128Z,5.07
2018-08-27T10:58:42.512Z,4.03
2018-08-27T11:01:10.848Z,3.70
2018-08-27T11:03:39.152Z,2.50
2018-08-27T11:06:07.795Z,2.50
2018-08-27T11:08:36.389Z,2.77
2018-08-27T11:11:04.702Z,2.90
2018-08-27T11:13:33.230Z,2.90
2018-08-27T11:16:01.662Z,2.67
2018-08-27T11:18:30.092Z,2.77
2018-08-27T11:20:59.157Z,6.50
2018-08-27T11:23:27.512Z,3.73
2018-08-27T11:25:55.776Z,2.53
2018-08-27T11:28:24.156Z,3.10
2018-08-27T11:30:52.665Z,3.00
2018-08-27T11:33:20.942Z,3.20
2018-08-27T11:35:49.489Z,2.47
2018-08-27T11:38:18.097Z,2.37
2018-08-27T11:40:46.462Z,2.10
2018-08-27T11:43:14.771Z,2.43
2018-08-27T11:45:43.148Z,2.30
2018-08-27T11:48:11.508Z,3.27
2018-08-27T11:50:40.094Z,2.63
2018-08-27T11:53:08.421Z,2.43
2018-08-27T11:55:36.904Z,2.03
2018-08-27T11:58:05.384Z,2.87
2018-08-27T12:00:39.053Z,2.70
2018-08-27T12:03:07.346Z,3.10
2018-08-27T12:05:35.984Z,2.53
2018-08-27T12:08:04.453Z,2.03
2018-08-27T12:10:32.867Z,4.30
2018-08-27T12:13:01.481Z,2.30
2018-08-27T12:15:29.873Z,1.90
2018-08-27T12:17:58.275Z,2.10
2018-08-27T12:20:26.738Z,2.00
2018-08-27T12:22:55.183Z,2.50
2018-08-27T12:25:23.643Z,2.03
2018-08-27T12:27:51.934Z,1.80
2018-08-27T12:30:20.290Z,2.13
2018-08-27T12:32:49.333Z,1.83
2018-08-27T12:35:35.942Z,2.23
2018-08-27T12:38:04.281Z,2.60
2018-08-27T12:40:32.751Z,2.50
2018-08-27T12:43:01.244Z,2.60
2018-08-27T12:45:29.618Z,2.40
2018-08-27T12:47:58.045Z,2.10
2018-08-27T12:50:26.296Z,2.23
2018-08-27T12:52:54.686Z,2.60
2018-08-27T12:55:22.934Z,2.00
2018-08-27T12:57:51.304Z,1.77
2018-08-27T13:00:19.613Z,1.77
2018-08-27T13:02:48.537Z,1.93
2018-08-27T13:05:16.867Z,1.70
2018-08-27T13:07:45.765Z,1.60
2018-08-27T13:10:14.180Z,1.73
2018-08-27T13:12:42.500Z,3.37
2018-08-27T13:15:10.881Z,2.40
2018-08-27T13:17:39.386Z,2.20
2018-08-27T13:20:07.876Z,2.10
2018-08-27T13:22:36.432Z,2.33
2018-08-27T13:25:04.840Z,2.20
2018-08-27T13:27:33.864Z,2.70
2018-08-27T13:30:02.543Z,2.80
2018-08-27T13:32:31.674Z,2.63
2018-08-27T13:35:01.023Z,3.30
2018-08-27T13:37:29.380Z,2.33
2018-08-27T13:39:57.973Z,2.07
2018-08-27T13:42:26.333Z,2.13
2018-08-27T13:44:54.923Z,1.77
2018-08-27T13:47:23.385Z,2.10
2018-08-27T13:49:51.826Z,2.20
2018-08-27T13:52:20.213Z,2.67
2018-08-27T13:54:48.534Z,2.40
2018-08-27T13:57:16.921Z,2.20
2018-08-27T13:59:46.229Z,2.30
2018-08-27T14:02:14.576Z,2.70
2018-08-27T14:04:43.106Z,4.37
2018-08-27T14:07:12.334Z,10.07
2018-08-27T14:09:40.837Z,3.57
2018-08-27T14:12:09.469Z,2.57
2018-08-27T14:14:38.005Z,2.40
2018-08-27T14:17:07.202Z,2.50
2018-08-27T14:19:35.876Z,2.30
2018-08-27T14:22:05.097Z,2.97
2018-08-27T14:24:33.543Z,3.10
2018-08-27T14:27:01.992Z,3.10
2018-08-27T14:29:30.341Z,3.00
2018-08-27T14:31:58.595Z,3.27
2018-08-27T14:34:26.900Z,2.93
2018-08-27T14:36:55.191Z,4.50
2018-08-27T14:39:23.682Z,3.77
2018-08-27T14:41:52.194Z,4.33
2018-08-27T14:44:20.436Z,2.83
2018-08-27T14:46:48.896Z,3.03
2018-08-27T14:49:17.229Z,2.97
2018-08-27T14:51:45.754Z,3.07
2018-08-27T14:54:15.583Z,3.00
2018-08-27T14:56:45.657Z,2.40
2018-08-27T14:59:13.964Z,2.70
2018-08-27T15:01:42.215Z,2.40
2018-08-27T15:04:10.630Z,2.80
2018-08-27T15:06:40.056Z,2.30
2018-08-27T15:09:08.643Z,2.90
2018-08-27T15:11:37.221Z,2.83
2018-08-27T15:14:05.842Z,2.33
2018-08-27T15:16:34.495Z,2.50
2018-08-27T15:19:03.601Z,2.50
2018-08-27T15:21:32.924Z,2.23
2018-08-27T15:24:01.461Z,2.20
2018-08-27T15:26:33.915Z,2.87
2018-08-27T15:29:04.407Z,2.37
2018-08-27T15:31:32.794Z,2.77
2018-08-27T15:34:01.119Z,2.80
2018-08-27T15:36:29.924Z,2.60
2018-08-27T15:38:58.484Z,2.50
2018-08-27T15:41:29.282Z,2.40
2018-08-27T15:43:58.096Z,2.50
2018-08-27T15:46:32.633Z,2.50
2018-08-27T15:49:01.516Z,2.83
2018-08-27T15:51:30.555Z,2.23
2018-08-27T15:53:59.413Z,2.30
2018-08-27T15:56:28.011Z,2.50
2018-08-27T15:58:56.501Z,2.33
2018-08-27T16:01:24.755Z,2.20
2018-08-27T16:03:53.464Z,2.63
2018-08-27T16:06:21.882Z,3.47
2018-08-27T16:08:50.305Z,9.00
2018-08-27T16:11:19.838Z,9.50
2018-08-27T16:13:48.310Z,4.63
2018-08-27T16:16:16.676Z,3.27
2018-08-27T16:18:45.099Z,2.40
2018-08-27T16:21:14.210Z,2.30
2018-08-27T16:23:43.013Z,2.20
2018-08-27T16:26:11.597Z,2.30
2018-08-27T16:28:40.214Z,1.90
2018-08-27T16:31:08.964Z,2.30
2018-08-27T16:33:38.320Z,2.20
2018-08-27T16:36:06.759Z,2.60
2018-08-27T16:38:35.201Z,2.30
2018-08-27T16:41:03.675Z,2.27
2018-08-27T16:43:32.306Z,2.20
2018-08-27T16:46:00.919Z,2.87
2018-08-27T16:48:29.674Z,4.73
2018-08-27T16:50:58.603Z,3.90
2018-08-27T16:53:26.956Z,2.30
2018-08-27T16:55:55.427Z,2.03
2018-08-27T16:58:24.094Z,2.23
2018-08-27T17:00:52.524Z,2.37
2018-08-27T17:03:20.994Z,2.30
2018-08-27T17:05:49.332Z,2.57
2018-08-27T17:08:17.660Z,2.17
2018-08-27T17:10:46.398Z,2.77
2018-08-27T17:13:15.077Z,2.60
2018-08-27T17:15:43.615Z,2.77
2018-08-27T17:18:12.431Z,2.30
2018-08-27T17:20:41.052Z,2.53
2018-08-27T17:23:09.612Z,2.87
2018-08-27T17:25:38.208Z,2.97
2018-08-27T17:28:06.681Z,2.20
2018-08-27T17:30:35.204Z,2.50
2018-08-27T17:33:03.715Z,2.20
2018-08-27T17:35:32.163Z,2.87
2018-08-27T17:38:00.774Z,2.83
2018-08-27T17:40:29.746Z,2.60
2018-08-27T17:42:58.361Z,2.50
2018-08-27T17:45:26.912Z,2.33
2018-08-27T17:47:55.451Z,2.40
2018-08-27T17:50:23.979Z,2.50
2018-08-27T17:52:52.983Z,2.43
2018-08-27T17:55:21.374Z,2.80
2018-08-27T17:57:49.928Z,3.97
2018-08-27T18:00:18.651Z,4.07
2018-08-27T18:02:47.158Z,4.40
2018-08-27T18:05:15.833Z,4.67
2018-08-27T18:07:44.352Z,4.37
2018-08-27T18:10:12.897Z,4.03
2018-08-27T18:12:41.341Z,4.07
2018-08-27T18:15:10.649Z,4.23
2018-08-27T18:17:39.550Z,3.97
2018-08-27T18:20:08.336Z,4.27
2018-08-27T18:22:36.661Z,3.90
2018-08-27T18:25:05.944Z,4.03
2018-08-27T18:27:34.306Z,4.03
2018-08-27T18:30:03.128Z,4.33
2018-08-27T18:32:32.059Z,3.90
2018-08-27T18:35:00.529Z,4.20
2018-08-27T18:37:30.260Z,4.73
2018-08-27T18:39:58.815Z,5.20
2018-08-27T18:42:27.839Z,5.87
2018-08-27T18:44:57.191Z,7.00
2018-08-27T18:47:30.175Z,7.53
2018-08-27T18:49:58.961Z,6.67
2018-08-27T18:52:28.226Z,5.33
2018-08-27T18:54:57.954Z,5.17
2018-08-27T18:57:26.759Z,6.03
2018-08-27T18:59:55.788Z,6.63
2018-08-27T19:02:24.425Z,9.30
2018-08-27T19:04:53.705Z,8.10
2018-08-27T19:07:22.106Z,6.73
2018-08-27T19:09:50.595Z,6.27
2018-08-27T19:12:20.492Z,6.47
2018-08-27T19:14:51.392Z,6.03
2018-08-27T19:17:20.513Z,6.90
2018-08-27T19:19:49.942Z,6.70
2018-08-27T19:24:59.779Z,7.10
2018-08-27T19:27:31.220Z,6.70
2018-08-27T19:30:00.606Z,6.70
2018-08-27T19:32:29.695Z,6.73
2018-08-27T19:34:59.358Z,6.87
2018-08-27T19:37:28.277Z,6.20
2018-08-27T19:39:57.906Z,5.40
2018-08-27T19:42:27.833Z,6.40
2018-08-27T19:44:57.861Z,6.23
2018-08-27T19:47:26.956Z,5.67
2018-08-27T19:50:00.005Z,5.20
2018-08-27T19:52:29.101Z,5.30
2018-08-27T19:54:57.953Z,5.07
2018-08-27T19:57:27.171Z,4.90
2018-08-27T19:59:57.685Z,4.67
2018-08-27T20:02:28.462Z,4.83
2018-08-27T20:04:57.133Z,5.20
2018-08-27T20:07:25.982Z,5.53
2018-08-27T20:09:55.044Z,5.07
2018-08-27T20:12:27.609Z,6.03
2018-08-27T20:14:57.788Z,6.30
2018-08-27T20:17:26.581Z,5.93
2018-08-27T20:19:55.288Z,6.60
2018-08-27T20:22:24.939Z,5.80
2018-08-27T20:24:54.677Z,5.77
2018-08-27T20:27:24.020Z,6.13
2018-08-27T20:29:54.616Z,6.40
2018-08-27T20:32:24.365Z,5.77
2018-08-27T20:34:54.185Z,6.37
2018-08-27T20:37:24.465Z,6.40
2018-08-27T20:39:55.868Z,6.40
2018-08-27T20:42:34.847Z,6.23
2018-08-27T20:45:05.942Z,6.53
2018-08-27T20:47:38.639Z,6.90
2018-08-27T20:50:08.418Z,6.47
2018-08-27T20:52:38.422Z,6.37
2018-08-27T20:55:06.954Z,6.17
2018-08-27T20:57:38.427Z,6.37
2018-08-27T21:00:07.960Z,6.80
2018-08-27T21:02:37.588Z,7.80
2018-08-27T21:05:06.858Z,6.27
2018-08-27T21:07:35.554Z,6.23
2018-08-27T21:10:07.128Z,7.17
2018-08-27T21:12:36.770Z,8.00
2018-08-27T21:15:10.348Z,6.43
2018-08-27T21:17:39.306Z,6.60
2018-08-27T21:20:09.502Z,6.67
2018-08-27T21:22:38.248Z,7.13
2018-08-27T21:25:07.874Z,6.47
2018-08-27T21:27:37.089Z,8.10
2018-08-27T21:30:08.991Z,7.00
2018-08-27T21:32:38.138Z,6.40
2018-08-27T21:35:06.939Z,6.70
2018-08-27T21:37:38.338Z,15.27
2018-08-27T21:40:06.718Z,6.60
2018-08-27T21:42:35.244Z,7.07
2018-08-27T21:45:04.609Z,6.30
2018-08-27T21:47:33.894Z,6.17
2018-08-27T21:50:02.590Z,6.67
2018-08-27T21:52:31.096Z,5.40
2018-08-27T21:54:59.804Z,5.80
2018-08-27T21:57:30.321Z,17.17
2018-08-27T21:59:59.220Z,6.03
2018-08-27T22:02:32.958Z,5.33
2018-08-27T22:05:02.892Z,5.40
2018-08-27T22:07:33.021Z,6.07
2018-08-27T22:10:01.752Z,8.27
2018-08-27T22:12:30.371Z,5.60
2018-08-27T22:14:58.922Z,6.10
2018-08-27T22:17:28.403Z,5.73
2018-08-27T22:19:57.400Z,5.40
2018-08-27T22:22:26.152Z,7.00
2018-08-27T22:24:54.679Z,5.60
2018-08-27T22:27:23.061Z,5.40
2018-08-27T22:29:51.482Z,5.70
2018-08-27T22:32:19.836Z,6.27
2018-08-27T22:34:48.394Z,6.60
2018-08-27T22:37:16.905Z,5.20
2018-08-27T22:39:45.313Z,5.17
2018-08-27T22:42:14.064Z,5.17
2018-08-27T22:44:42.531Z,5.17
2018-08-27T22:47:16.195Z,5.43
2018-08-27T22:49:44.661Z,6.33
2018-08-27T22:52:13.474Z,5.63
2018-08-27T22:54:41.897Z,5.50
2018-08-27T22:57:10.182Z,5.37
2018-08-27T22:59:38.510Z,5.40
2018-08-27T23:02:07.103Z,6.03
2018-08-27T23:04:40.708Z,5.37
2018-08-27T23:07:09.381Z,4.80
2018-08-27T23:09:37.805Z,5.40
2018-08-27T23:12:06.082Z,5.60
2018-08-27T23:14:34.444Z,5.17
2018-08-27T23:17:03.103Z,5.70
2018-08-27T23:19:31.373Z,5.47
2018-08-27T23:21:59.702Z,5.63
2018-08-27T23:24:28.235Z,5.10
2018-08-27T23:26:56.540Z,5.57
2018-08-27T23:29:25.226Z,5.10
2018-08-27T23:31:53.776Z,5.23
2018-08-27T23:34:22.053Z,4.93
2018-08-27T23:36:50.534Z,5.60
2018-08-27T23:39:18.883Z,5.27
2018-08-27T23:41:47.330Z,6.20
2018-08-27T23:44:15.938Z,5.80
2018-08-27T23:46:44.361Z,5.23
2018-08-27T23:49:12.713Z,5.30
2018-08-27T23:51:41.047Z,5.20
2018-08-27T23:54:09.335Z,5.13
2018-08-27T23:56:37.745Z,5.20
2018-08-27T23:59:06.115Z,5.87
